createdAt,value
2019-04-30T00:00:34.786Z,57.21
2019-04-30T00:03:19.527Z,56.12
2019-04-30T00:05:49.414Z,56.13
2019-04-30T00:08:16.021Z,56.48
2019-04-30T00:10:43.114Z,56.97
2019-04-30T00:13:10.506Z,56.64
2019-04-30T00:15:39.256Z,57.13
2019-04-30T00:18:08.252Z,58.17
2019-04-30T00:20:38.644Z,57.18
2019-04-30T00:23:05.183Z,57.55
2019-04-30T00:25:31.988Z,57.33
2019-04-30T00:28:00.366Z,57.96
2019-04-30T00:30:27.895Z,57.94
2019-04-30T00:32:55.681Z,57.30
2019-04-30T00:35:23.141Z,57.88
2019-04-30T00:37:52.063Z,58.78
2019-04-30T00:40:21.690Z,58.16
2019-04-30T00:42:47.576Z,58.07
2019-04-30T00:45:15.492Z,58.31
2019-04-30T00:47:44.628Z,58.45
2019-04-30T00:50:11.734Z,59.58
2019-04-30T00:52:38.821Z,59.07
2019-04-30T00:55:09.082Z,59.11
2019-04-30T00:57:37.369Z,59.36
2019-04-30T01:00:05.129Z,59.23
2019-04-30T01:02:35.763Z,59.38
2019-04-30T01:05:11.305Z,58.81
2019-04-30T01:07:40.047Z,58.36
2019-04-30T01:10:06.779Z,58.82
2019-04-30T01:12:36.989Z,58.93
2019-04-30T01:15:06.399Z,59.28
2019-04-30T01:17:31.836Z,59.74
2019-04-30T01:19:59.254Z,60.18
2019-04-30T01:22:29.210Z,59.74
2019-04-30T01:24:54.826Z,60.57
2019-04-30T01:27:21.750Z,60.05
2019-04-30T01:29:48.903Z,60.71
2019-04-30T01:32:19.299Z,60.89
2019-04-30T01:34:50.029Z,60.61
2019-04-30T01:37:13.627Z,60.43
2019-04-30T01:39:40.460Z,61.09
2019-04-30T01:42:10.998Z,60.88
2019-04-30T01:44:35.887Z,61.60
2019-04-30T01:47:03.365Z,62.21
2019-04-30T01:49:41.703Z,62.05
2019-04-30T01:52:01.002Z,61.62
2019-04-30T01:54:29.135Z,61.53
2019-04-30T01:56:59.416Z,61.09
2019-04-30T01:59:29.131Z,61.80
2019-04-30T02:01:56.339Z,61.29
2019-04-30T02:04:23.211Z,62.10
2019-04-30T02:06:51.618Z,62.24
2019-04-30T02:09:18.936Z,63.33
2019-04-30T02:11:48.789Z,62.67
2019-04-30T02:14:15.674Z,62.87
2019-04-30T02:16:42.581Z,62.75
2019-04-30T02:19:09.550Z,62.72
2019-04-30T02:21:36.163Z,63.32
2019-04-30T02:24:03.216Z,63.20
2019-04-30T02:26:30.163Z,62.49
2019-04-30T02:28:57.063Z,62.94
2019-04-30T02:31:24.048Z,62.87
2019-04-30T02:33:53.080Z,62.57
2019-04-30T02:36:40.028Z,63.02
2019-04-30T02:39:05.817Z,64.12
2019-04-30T02:41:33.060Z,63.40
2019-04-30T02:44:01.521Z,64.34
2019-04-30T02:46:32.209Z,63.96
2019-04-30T02:48:59.789Z,63.75
2019-04-30T02:51:29.942Z,64.26
2019-04-30T02:54:20.293Z,64.08
2019-04-30T02:56:50.811Z,64.11
2019-04-30T02:59:20.084Z,63.65
2019-04-30T03:01:46.691Z,63.40
2019-04-30T03:04:13.334Z,63.62
2019-04-30T03:06:40.698Z,64.59
2019-04-30T03:09:10.169Z,65.76
2019-04-30T03:11:36.723Z,64.53
2019-04-30T03:14:03.877Z,64.99
2019-04-30T03:16:52.611Z,65.04
2019-04-30T03:19:20.298Z,65.56
2019-04-30T03:21:50.190Z,66.23
2019-04-30T03:24:19.993Z,65.27
2019-04-30T03:26:49.692Z,65.39
2019-04-30T03:29:16.091Z,65.52
2019-04-30T03:31:45.266Z,66.21
2019-04-30T03:34:18.316Z,65.96
2019-04-30T03:36:40.747Z,65.29
2019-04-30T03:39:10.349Z,65.38
2019-04-30T03:41:36.674Z,65.20
2019-04-30T03:44:17.115Z,65.64
2019-04-30T03:46:32.780Z,65.81
2019-04-30T03:49:00.222Z,65.70
2019-04-30T03:51:29.782Z,65.07
2019-04-30T03:53:56.300Z,66.68
2019-04-30T03:56:23.203Z,65.32
2019-04-30T03:58:50.399Z,65.44
2019-04-30T04:01:29.429Z,65.90
2019-04-30T04:04:15.967Z,65.71
2019-04-30T04:06:50.349Z,64.92
2019-04-30T04:09:31.028Z,65.00
2019-04-30T04:11:59.950Z,65.44
2019-04-30T04:14:29.644Z,64.94
2019-04-30T04:16:56.121Z,65.03
2019-04-30T04:19:23.079Z,64.34
2019-04-30T04:21:50.906Z,64.94
2019-04-30T04:24:20.210Z,64.43
2019-04-30T04:26:49.886Z,63.90
2019-04-30T04:29:15.983Z,63.58
2019-04-30T04:31:43.133Z,63.15
2019-04-30T04:34:10.011Z,63.73
2019-04-30T04:36:36.933Z,64.27
2019-04-30T04:39:05.081Z,63.31
2019-04-30T04:41:31.892Z,63.92
2019-04-30T04:44:00.114Z,63.11
2019-04-30T04:46:30.465Z,62.90
2019-04-30T04:48:56.023Z,60.46
2019-04-30T04:51:34.466Z,58.48
2019-04-30T04:53:51.710Z,55.02
2019-04-30T04:56:19.192Z,54.31
2019-04-30T04:58:46.147Z,52.78
2019-04-30T05:01:13.344Z,51.84
2019-04-30T05:03:40.397Z,51.87
2019-04-30T05:06:11.361Z,50.43
2019-04-30T05:08:36.132Z,49.42
2019-04-30T05:11:03.300Z,48.11
2019-04-30T05:13:30.631Z,47.86
2019-04-30T05:15:59.519Z,47.65
2019-04-30T05:18:26.471Z,48.00
2019-04-30T05:20:53.249Z,49.38
2019-04-30T05:23:21.799Z,50.88
2019-04-30T05:25:49.157Z,48.04
2019-04-30T05:28:16.302Z,48.65
2019-04-30T05:30:43.369Z,47.38
2019-04-30T05:33:10.191Z,45.94
2019-04-30T05:35:38.733Z,47.73
2019-04-30T05:38:05.723Z,48.68
2019-04-30T05:40:32.976Z,50.30
2019-04-30T05:43:00.373Z,47.92
2019-04-30T05:45:29.018Z,44.95
2019-04-30T05:47:56.176Z,44.25
2019-04-30T05:50:23.011Z,46.47
2019-04-30T05:52:50.940Z,46.61
2019-04-30T05:55:19.604Z,46.46
2019-04-30T05:57:53.879Z,45.50
2019-04-30T06:00:15.522Z,48.65
2019-04-30T06:02:42.321Z,50.61
2019-04-30T06:05:10.079Z,51.61
2019-04-30T06:07:39.306Z,53.39
2019-04-30T06:10:09.270Z,53.33
2019-04-30T06:12:54.316Z,53.05
2019-04-30T06:15:23.227Z,53.28
2019-04-30T06:18:05.213Z,53.14
2019-04-30T06:20:24.246Z,53.67
2019-04-30T06:22:52.257Z,52.70
2019-04-30T06:25:28.320Z,53.61
2019-04-30T06:27:48.816Z,51.85
2019-04-30T06:30:15.970Z,52.00
2019-04-30T06:32:44.406Z,50.35
2019-04-30T06:35:11.582Z,50.53
2019-04-30T06:37:39.101Z,50.88
2019-04-30T06:40:06.799Z,49.12
2019-04-30T06:42:34.439Z,49.08
2019-04-30T06:45:01.492Z,50.71
2019-04-30T06:47:33.134Z,50.83
2019-04-30T06:50:01.293Z,48.71
2019-04-30T06:52:29.346Z,48.70
2019-04-30T06:54:56.147Z,49.01
2019-04-30T06:57:23.018Z,48.19
2019-04-30T06:59:51.578Z,48.74
2019-04-30T07:02:19.676Z,48.84
2019-04-30T07:04:49.179Z,47.91
2019-04-30T07:07:21.399Z,47.32
2019-04-30T07:09:54.798Z,47.90
2019-04-30T07:12:25.603Z,46.93
2019-04-30T07:14:49.429Z,46.83
2019-04-30T07:17:16.361Z,47.24
2019-04-30T07:19:53.177Z,45.77
2019-04-30T07:22:11.847Z,45.25
2019-04-30T07:24:39.410Z,44.34
2019-04-30T07:27:08.999Z,43.72
2019-04-30T07:29:36.213Z,42.50
2019-04-30T07:32:03.162Z,41.52
2019-04-30T07:34:36.647Z,41.14
2019-04-30T07:37:11.919Z,41.30
2019-04-30T07:39:31.207Z,42.34
2019-04-30T07:41:59.806Z,42.77
2019-04-30T07:44:33.662Z,43.70
2019-04-30T07:46:54.841Z,44.74
2019-04-30T07:49:21.713Z,43.49
2019-04-30T07:51:51.141Z,44.13
2019-04-30T07:54:18.967Z,43.79
2019-04-30T07:56:45.797Z,44.88
2019-04-30T07:59:12.795Z,42.97
2019-04-30T08:02:00.213Z,42.53
2019-04-30T08:04:25.899Z,41.12
2019-04-30T08:06:52.921Z,41.73
2019-04-30T08:09:22.246Z,39.21
2019-04-30T08:11:49.136Z,38.66
2019-04-30T08:14:15.835Z,39.33
2019-04-30T08:16:42.331Z,39.67
2019-04-30T08:19:09.673Z,38.01
2019-04-30T08:21:38.615Z,38.94
2019-04-30T08:24:05.675Z,39.06
2019-04-30T08:26:32.730Z,36.69
2019-04-30T08:28:59.891Z,33.92
2019-04-30T08:31:26.759Z,31.80
2019-04-30T08:33:53.640Z,32.16
2019-04-30T08:36:20.328Z,31.45
2019-04-30T08:38:47.071Z,30.72
2019-04-30T08:41:13.694Z,31.87
2019-04-30T08:43:40.357Z,30.85
2019-04-30T08:46:08.917Z,31.09
2019-04-30T08:48:47.821Z,29.58
2019-04-30T08:51:04.229Z,29.95
2019-04-30T08:53:33.748Z,28.76
2019-04-30T08:55:59.688Z,30.64
2019-04-30T08:58:29.023Z,28.45
2019-04-30T09:00:55.432Z,28.03
2019-04-30T09:03:23.356Z,27.36
2019-04-30T09:05:52.682Z,26.05
2019-04-30T09:08:19.673Z,26.11
2019-04-30T09:10:46.376Z,25.94
2019-04-30T09:13:13.302Z,26.23
2019-04-30T09:15:40.348Z,27.53
2019-04-30T09:18:10.238Z,29.18
2019-04-30T09:20:35.879Z,28.45
2019-04-30T09:23:02.435Z,27.83
2019-04-30T09:25:29.366Z,27.85
2019-04-30T09:27:56.146Z,26.83
2019-04-30T09:30:22.876Z,27.93
2019-04-30T09:32:50.158Z,28.47
2019-04-30T09:35:16.883Z,28.49
2019-04-30T09:37:43.784Z,26.34
2019-04-30T09:40:17.976Z,26.75
2019-04-30T09:42:40.664Z,26.92
2019-04-30T09:45:08.800Z,28.31
2019-04-30T09:47:37.303Z,26.28
2019-04-30T09:50:04.456Z,26.08
2019-04-30T09:52:31.576Z,27.74
2019-04-30T09:54:59.524Z,26.12
2019-04-30T09:57:28.953Z,25.35
2019-04-30T09:59:55.715Z,25.83
2019-04-30T10:02:24.402Z,25.72
2019-04-30T10:04:51.619Z,26.41
2019-04-30T10:07:19.582Z,25.80
2019-04-30T10:09:50.432Z,25.36
2019-04-30T10:12:19.590Z,26.49
2019-04-30T10:14:46.833Z,22.05
2019-04-30T10:17:15.596Z,21.58
2019-04-30T10:19:42.493Z,22.88
2019-04-30T10:22:09.419Z,23.02
2019-04-30T10:24:36.956Z,22.79
2019-04-30T10:27:06.927Z,22.24
2019-04-30T10:29:32.876Z,21.20
2019-04-30T10:31:59.961Z,20.95
2019-04-30T10:34:26.934Z,22.08
2019-04-30T10:36:53.746Z,23.27
2019-04-30T10:39:21.698Z,21.71
2019-04-30T10:41:48.754Z,21.83
2019-04-30T10:44:15.915Z,21.10
2019-04-30T10:46:42.941Z,19.68
2019-04-30T10:49:10.515Z,20.54
2019-04-30T10:51:38.816Z,21.58
2019-04-30T10:54:06.043Z,21.58
2019-04-30T10:56:32.729Z,21.68
2019-04-30T10:58:59.851Z,22.08
2019-04-30T11:01:29.055Z,19.61
2019-04-30T11:03:55.871Z,18.98
2019-04-30T11:06:22.506Z,20.73
2019-04-30T11:08:49.668Z,21.59
2019-04-30T11:11:16.615Z,19.98
2019-04-30T11:13:43.758Z,20.76
2019-04-30T11:16:13.269Z,20.87
2019-04-30T11:18:39.415Z,20.51
2019-04-30T11:21:09.451Z,18.54
2019-04-30T11:23:36.629Z,19.91
2019-04-30T11:26:04.197Z,19.81
2019-04-30T11:28:31.638Z,19.88
2019-04-30T11:31:06.641Z,20.50
2019-04-30T11:33:34.053Z,18.23
2019-04-30T11:36:02.988Z,19.28
2019-04-30T11:38:30.746Z,19.40
2019-04-30T11:40:58.448Z,19.25
2019-04-30T11:43:25.454Z,18.52
2019-04-30T11:46:18.719Z,19.49
2019-04-30T11:48:45.596Z,18.46
2019-04-30T11:51:12.444Z,20.03
2019-04-30T11:53:39.416Z,18.45
2019-04-30T11:56:06.478Z,18.38
2019-04-30T11:58:34.412Z,18.26
2019-04-30T12:01:01.567Z,17.85
2019-04-30T12:03:30.297Z,17.70
2019-04-30T12:05:58.919Z,17.48
2019-04-30T12:08:29.393Z,18.05
2019-04-30T12:11:01.137Z,17.50
2019-04-30T12:13:29.360Z,17.76
2019-04-30T12:15:56.388Z,17.04
2019-04-30T12:18:23.332Z,17.24
2019-04-30T12:20:50.799Z,17.00
2019-04-30T12:23:19.365Z,17.03
2019-04-30T12:25:46.350Z,18.21
2019-04-30T12:28:13.258Z,17.01
2019-04-30T12:30:40.760Z,17.83
2019-04-30T12:33:09.074Z,16.84
2019-04-30T12:35:36.449Z,17.43
2019-04-30T12:38:03.639Z,16.61
2019-04-30T12:40:32.388Z,16.23
2019-04-30T12:42:59.879Z,17.59
2019-04-30T12:45:26.897Z,16.97
2019-04-30T12:47:55.472Z,16.89
2019-04-30T12:50:40.758Z,16.88
2019-04-30T12:53:10.363Z,16.12
2019-04-30T12:55:44.788Z,17.44
2019-04-30T12:58:11.729Z,16.15
2019-04-30T13:00:39.227Z,16.60
2019-04-30T13:03:06.042Z,16.23
2019-04-30T13:05:32.859Z,15.61
2019-04-30T13:08:00.598Z,16.23
2019-04-30T13:10:28.672Z,15.71
2019-04-30T13:12:56.762Z,16.60
2019-04-30T13:15:23.811Z,16.63
2019-04-30T13:17:50.676Z,15.95
2019-04-30T13:20:21.431Z,15.37
2019-04-30T13:22:46.617Z,16.01
2019-04-30T13:25:13.676Z,16.39
2019-04-30T13:27:42.653Z,16.05
2019-04-30T13:30:11.559Z,16.95
2019-04-30T13:32:40.650Z,17.86
2019-04-30T13:35:09.281Z,18.40
2019-04-30T13:37:38.969Z,18.66
2019-04-30T13:40:10.858Z,18.68
2019-04-30T13:42:42.406Z,19.03
2019-04-30T13:45:09.846Z,20.67
2019-04-30T13:47:36.654Z,20.12
2019-04-30T13:50:04.624Z,20.35
2019-04-30T13:52:31.775Z,20.85
2019-04-30T13:54:58.780Z,20.30
2019-04-30T13:57:25.804Z,20.38
2019-04-30T13:59:52.755Z,20.78
2019-04-30T14:02:19.666Z,21.08
2019-04-30T14:05:03.919Z,21.37
2019-04-30T14:07:50.827Z,20.73
2019-04-30T14:10:19.564Z,21.25
2019-04-30T14:12:48.627Z,21.95
2019-04-30T14:15:15.761Z,21.84
2019-04-30T14:17:42.915Z,21.77
2019-04-30T14:20:09.981Z,21.64
2019-04-30T14:22:36.904Z,22.89
2019-04-30T14:25:03.956Z,22.10
2019-04-30T14:27:30.874Z,22.07
2019-04-30T14:29:59.313Z,22.06
2019-04-30T14:32:26.280Z,22.45
2019-04-30T14:34:53.073Z,21.91
2019-04-30T14:37:20.227Z,21.82
2019-04-30T14:39:47.524Z,22.11
2019-04-30T14:42:15.336Z,21.87
2019-04-30T14:44:44.236Z,22.53
2019-04-30T14:47:14.403Z,21.99
2019-04-30T14:49:43.539Z,22.02
2019-04-30T14:52:10.502Z,22.03
2019-04-30T14:54:39.373Z,22.25
2019-04-30T14:57:08.905Z,22.32
2019-04-30T14:59:53.935Z,22.50
2019-04-30T15:02:25.343Z,22.19
2019-04-30T15:04:52.370Z,22.86
2019-04-30T15:07:20.844Z,22.48
2019-04-30T15:09:47.790Z,22.41
2019-04-30T15:12:14.942Z,22.27
2019-04-30T15:14:42.002Z,22.67
2019-04-30T15:17:09.148Z,22.38
2019-04-30T15:19:36.108Z,22.47
2019-04-30T15:22:04.009Z,23.35
2019-04-30T15:24:39.138Z,22.53
2019-04-30T15:27:06.340Z,23.17
2019-04-30T15:29:33.617Z,23.19
2019-04-30T15:32:00.849Z,22.85
2019-04-30T15:34:29.379Z,23.29
2019-04-30T15:36:56.382Z,22.76
2019-04-30T15:39:30.662Z,22.44
2019-04-30T15:41:57.596Z,22.86
2019-04-30T15:44:24.511Z,23.06
2019-04-30T15:46:51.331Z,23.01
2019-04-30T15:49:18.382Z,23.29
2019-04-30T15:51:46.498Z,23.76
2019-04-30T15:54:13.410Z,23.91
2019-04-30T15:56:42.351Z,24.41
2019-04-30T15:59:10.804Z,24.65
2019-04-30T16:01:38.665Z,24.50
2019-04-30T16:04:06.195Z,24.58
2019-04-30T16:06:33.863Z,24.74
2019-04-30T16:09:03.675Z,24.48
2019-04-30T16:11:34.249Z,24.51
2019-04-30T16:14:19.415Z,24.40
2019-04-30T16:16:48.836Z,25.05
2019-04-30T16:19:15.936Z,25.06
2019-04-30T16:21:42.873Z,25.35
2019-04-30T16:24:09.844Z,25.77
2019-04-30T16:26:47.310Z,26.03
2019-04-30T16:29:06.212Z,25.89
2019-04-30T16:31:33.354Z,25.66
2019-04-30T16:34:00.068Z,25.75
2019-04-30T16:36:29.032Z,26.12
2019-04-30T16:38:55.933Z,25.99
2019-04-30T16:41:31.575Z,25.81
2019-04-30T16:43:52.057Z,26.43
2019-04-30T16:46:19.095Z,26.74
2019-04-30T16:48:46.554Z,26.55
2019-04-30T16:51:14.216Z,26.24
2019-04-30T16:53:41.250Z,26.82
2019-04-30T16:56:08.557Z,26.96
2019-04-30T16:58:54.201Z,27.03
2019-04-30T17:01:21.143Z,26.84
2019-04-30T17:03:50.523Z,26.71
2019-04-30T17:06:19.673Z,26.93
2019-04-30T17:08:49.480Z,26.63
2019-04-30T17:11:21.434Z,26.74
2019-04-30T17:13:50.207Z,26.73
2019-04-30T17:16:19.548Z,27.00
2019-04-30T17:18:46.659Z,27.23
2019-04-30T17:21:13.290Z,27.02
2019-04-30T17:23:40.367Z,27.24
2019-04-30T17:26:07.222Z,27.70
2019-04-30T17:28:34.043Z,27.38
2019-04-30T17:31:02.317Z,27.44
2019-04-30T17:33:30.439Z,27.32
2019-04-30T17:35:57.129Z,27.51
2019-04-30T17:38:24.299Z,27.68
2019-04-30T17:40:51.185Z,27.54
2019-04-30T17:43:18.069Z,28.00
2019-04-30T17:45:46.472Z,28.11
2019-04-30T17:48:13.407Z,27.78
2019-04-30T17:50:40.448Z,27.91
2019-04-30T17:53:09.104Z,28.18
2019-04-30T17:55:39.144Z,28.96
2019-04-30T17:58:06.106Z,28.67
2019-04-30T18:00:34.542Z,28.62
2019-04-30T18:03:01.684Z,28.47
2019-04-30T18:05:29.234Z,28.08
2019-04-30T18:07:56.254Z,28.11
2019-04-30T18:10:23.586Z,28.14
2019-04-30T18:12:50.408Z,28.50
2019-04-30T18:15:19.507Z,28.07
2019-04-30T18:17:49.114Z,27.69
2019-04-30T18:20:19.173Z,27.92
2019-04-30T18:22:51.263Z,27.63
2019-04-30T18:25:29.079Z,27.55
2019-04-30T18:28:03.075Z,27.58
2019-04-30T18:30:31.962Z,27.87
2019-04-30T18:32:59.199Z,27.97
2019-04-30T18:35:28.624Z,28.37
2019-04-30T18:37:55.568Z,28.20
2019-04-30T18:40:22.649Z,28.33
2019-04-30T18:42:50.025Z,28.62
2019-04-30T18:45:17.003Z,28.51
2019-04-30T18:47:44.611Z,28.71
2019-04-30T18:50:11.940Z,28.48
2019-04-30T18:52:39.252Z,28.54
2019-04-30T18:55:06.405Z,29.14
2019-04-30T18:57:33.430Z,29.54
2019-04-30T19:00:01.523Z,29.33
2019-04-30T19:02:30.460Z,29.27
2019-04-30T19:04:59.442Z,29.41
2019-04-30T19:07:34.441Z,29.52
2019-04-30T19:10:03.270Z,29.86
2019-04-30T19:12:39.032Z,30.12
2019-04-30T19:15:08.002Z,30.09
2019-04-30T19:17:39.826Z,30.48
2019-04-30T19:20:20.920Z,30.42
2019-04-30T19:22:47.707Z,30.63
2019-04-30T19:25:16.159Z,30.41
2019-04-30T19:27:42.975Z,30.51
2019-04-30T19:30:10.269Z,30.58
2019-04-30T19:32:39.084Z,30.57
2019-04-30T19:35:06.683Z,30.61
2019-04-30T19:37:33.657Z,31.01
2019-04-30T19:40:00.811Z,31.13
2019-04-30T19:42:29.524Z,30.74
2019-04-30T19:45:05.197Z,30.96
2019-04-30T19:47:26.941Z,30.82
2019-04-30T19:49:54.495Z,31.16
2019-04-30T19:52:21.744Z,31.26
2019-04-30T19:54:49.076Z,30.95
2019-04-30T19:57:16.052Z,31.09
2019-04-30T19:59:43.608Z,31.17
2019-04-30T20:02:11.376Z,31.33
2019-04-30T20:04:40.393Z,31.57
2019-04-30T20:07:08.818Z,31.84
2019-04-30T20:09:35.907Z,31.35
2019-04-30T20:12:02.974Z,31.22
2019-04-30T20:14:29.999Z,31.32
2019-04-30T20:16:59.025Z,31.66
2019-04-30T20:19:26.066Z,31.58
2019-04-30T20:21:54.079Z,31.69
2019-04-30T20:24:21.365Z,32.20
2019-04-30T20:26:48.772Z,31.87
2019-04-30T20:29:18.587Z,31.74
2019-04-30T20:31:45.579Z,32.04
2019-04-30T20:34:12.437Z,32.30
2019-04-30T20:36:41.059Z,32.62
2019-04-30T20:39:12.870Z,32.31
2019-04-30T20:41:40.263Z,32.60
2019-04-30T20:44:08.728Z,32.08
2019-04-30T20:46:36.327Z,31.99
2019-04-30T20:49:03.335Z,32.37
2019-04-30T20:51:30.366Z,32.46
2019-04-30T20:53:59.169Z,32.52
2019-04-30T20:56:26.611Z,32.86
2019-04-30T20:58:57.761Z,32.75
2019-04-30T21:01:22.371Z,33.23
2019-04-30T21:03:49.291Z,32.89
2019-04-30T21:06:16.177Z,33.04
2019-04-30T21:08:43.181Z,33.37
2019-04-30T21:11:09.934Z,33.31
2019-04-30T21:13:36.691Z,33.18
2019-04-30T21:16:03.673Z,34.26
2019-04-30T21:18:32.486Z,33.46
2019-04-30T21:20:59.710Z,33.89
2019-04-30T21:23:26.918Z,33.82
2019-04-30T21:25:54.117Z,34.60
2019-04-30T21:28:21.111Z,35.33
2019-04-30T21:30:48.082Z,35.71
2019-04-30T21:33:16.747Z,35.78
2019-04-30T21:35:45.636Z,35.77
2019-04-30T21:38:12.680Z,35.45
2019-04-30T21:40:39.991Z,35.50
2019-04-30T21:43:07.078Z,36.05
2019-04-30T21:45:34.143Z,35.38
2019-04-30T21:48:01.526Z,35.42
2019-04-30T21:50:29.672Z,35.80
2019-04-30T21:52:56.878Z,35.76
2019-04-30T21:55:24.268Z,36.27
2019-04-30T21:57:51.219Z,36.42
2019-04-30T22:00:37.002Z,36.76
2019-04-30T22:03:09.211Z,36.92
2019-04-30T22:05:35.915Z,36.98
2019-04-30T22:08:03.750Z,37.10
2019-04-30T22:10:30.434Z,37.11
2019-04-30T22:12:58.643Z,36.61
2019-04-30T22:15:26.665Z,36.69
2019-04-30T22:17:54.527Z,36.66
2019-04-30T22:20:21.683Z,36.31
2019-04-30T22:22:48.974Z,36.37
2019-04-30T22:25:17.112Z,36.74
2019-04-30T22:27:45.393Z,36.39
2019-04-30T22:30:12.848Z,36.59
2019-04-30T22:32:39.787Z,36.96
2019-04-30T22:35:08.586Z,36.79
2019-04-30T22:37:35.428Z,36.69
2019-04-30T22:40:04.349Z,37.12
2019-04-30T22:42:32.190Z,36.83
2019-04-30T22:44:59.849Z,36.91
2019-04-30T22:47:27.305Z,37.36
2019-04-30T22:49:54.153Z,37.31
2019-04-30T22:52:21.939Z,37.46
2019-04-30T22:54:48.993Z,37.26
2019-04-30T22:57:15.939Z,37.14
2019-04-30T22:59:49.694Z,36.68
2019-04-30T23:02:13.999Z,37.20
2019-04-30T23:04:45.721Z,37.33
2019-04-30T23:07:12.813Z,37.03
2019-04-30T23:09:39.851Z,37.67
2019-04-30T23:12:06.691Z,37.65
2019-04-30T23:14:33.742Z,37.78
2019-04-30T23:17:00.487Z,38.35
2019-04-30T23:19:27.424Z,38.23
2019-04-30T23:21:54.516Z,38.09
2019-04-30T23:24:21.449Z,38.53
2019-04-30T23:26:48.471Z,38.15
2019-04-30T23:29:16.301Z,38.08
2019-04-30T23:31:43.487Z,38.45
2019-04-30T23:34:17.857Z,39.25
2019-04-30T23:36:38.829Z,38.95
2019-04-30T23:39:05.840Z,39.01
2019-04-30T23:41:32.604Z,38.48
2019-04-30T23:43:59.289Z,39.07
2019-04-30T23:46:26.292Z,38.89
2019-04-30T23:48:53.857Z,39.11
2019-04-30T23:51:21.306Z,38.33
2019-04-30T23:53:48.359Z,38.74
2019-04-30T23:56:15.503Z,38.43
2019-04-30T23:58:42.453Z,39.03
